Legato — EI7327 — position and weather

sailwx.info

Track history (hours):
 
Tides and Currents Weather Stations Pressure Air Temp Water Temp Dewpoint Dewpoint Depression Visibility Wind Speed Wind Dir Waves Ship Positions

Legato

Last reported at 2017-Aug-31 04:10 UTC. Time now 2017-Sep-20 02:13 UTC.
Position N 48°17' W 004°35'.
Warning: this ship's position is 19 days out of date.

Length 10 m.

Type: Pleasure craft. MMSI: 250001829.

Date/timePositionNaut miles runAvg speedWind from/ knotsBaromVisibWave heightAir tempDewpointWater temp
2017-Aug-31 04:10N 48°17' W 004°35'0 0.0
2017-Aug-31 03:58N 48°17' W 004°35'0 0.0
2017-Aug-31 03:25N 48°17' W 004°35'0 0.0
2017-Aug-31 02:58N 48°17' W 004°35'0 0.0
2017-Aug-31 02:28N 48°17' W 004°35'0 0.0
2017-Aug-31 01:58N 48°17' W 004°35'0 0.0
2017-Aug-31 01:28N 48°17' W 004°35'0 0.0
2017-Aug-31 00:58N 48°17' W 004°35'0 0.0
2017-Aug-31 00:28N 48°17' W 004°35'0 0.0
2017-Aug-30 23:58N 48°17' W 004°35'0 0.0
2017-Aug-30 23:28N 48°17' W 004°35'0 0.0
2017-Aug-30 22:55N 48°17' W 004°35'0 0.0
2017-Aug-30 22:28N 48°17' W 004°35'0 0.0
2017-Aug-30 21:58N 48°17' W 004°35'0 0.0
2017-Aug-30 21:28N 48°17' W 004°35'0 0.0
2017-Aug-30 20:58N 48°17' W 004°35'0 0.0
2017-Aug-30 20:28N 48°17' W 004°35'0 0.0
2017-Aug-30 19:58N 48°17' W 004°35'0 0.0
2017-Aug-30 19:28N 48°17' W 004°35'0 0.0
2017-Aug-30 18:58N 48°17' W 004°35'0 0.0
2017-Aug-30 18:28N 48°17' W 004°35'0 0.0
2017-Aug-30 17:58N 48°17' W 004°35'0 0.0
2017-Aug-30 17:28N 48°17' W 004°35'0 0.0
2017-Aug-30 16:58N 48°17' W 004°35'0 0.0
2017-Aug-30 16:28N 48°17' W 004°35'0 0.0
2017-Aug-30 15:58N 48°17' W 004°35'0 0.0
2017-Aug-30 15:28N 48°17' W 004°35'0 0.0
2017-Aug-30 14:58N 48°17' W 004°35'1 1.6
2017-Aug-30 14:30N 48°17' W 004°36'2 4.0
2017-Aug-30 14:00N 48°16' W 004°38'1 1.8
2017-Aug-30 13:30N 48°15' W 004°38'1 2.4
2017-Aug-30 13:00N 48°14' W 004°39'3 5.0
2017-Aug-30 12:30N 48°12' W 004°37'3 5.5
2017-Aug-30 12:00N 48°10' W 004°34'3 4.2
2017-Aug-30 11:11N 48°12' W 004°30'1 5.0
2017-Aug-30 10:58N 48°13' W 004°29'1 1.0
2017-Aug-30 10:15N 48°14' W 004°30'0 0.0
2017-Aug-30 01:15N 48°14' W 004°30'0 0.0
2017-Aug-30 00:57N 48°14' W 004°30'0 0.0
2017-Aug-30 00:30N 48°14' W 004°30'0 0.0
2017-Aug-29 23:39N 48°14' W 004°30'0 0.0
2017-Aug-29 23:30N 48°14' W 004°30'0 0.0
2017-Aug-29 22:54N 48°14' W 004°30'0 0.0
2017-Aug-29 20:51N 48°14' W 004°30'0 0.0
2017-Aug-29 14:53N 48°14' W 004°30'1 3.2
2017-Aug-29 14:29N 48°13' W 004°28'4 0.5
2017-Aug-29 06:48N 48°11' W 004°32'0 0.0
2017-Aug-29 04:48N 48°11' W 004°32'0 0.0
2017-Aug-28 22:53N 48°11' W 004°32'  
2017-Aug-24 06:33N 48°06' W 004°19'0 0.0
2017-Aug-24 04:48N 48°06' W 004°19'0 0.0
2017-Aug-24 03:33N 48°06' W 004°19'0 0.0
2017-Aug-24 02:48N 48°06' W 004°19'0 0.0
2017-Aug-24 01:48N 48°06' W 004°19'0 0.0
2017-Aug-24 00:48N 48°06' W 004°19'0 0.0
2017-Aug-23 23:48N 48°06' W 004°19'0 0.0
2017-Aug-23 22:48N 48°06' W 004°19'0 0.0
2017-Aug-23 20:48N 48°06' W 004°19'0 0.0
2017-Aug-23 19:48N 48°06' W 004°19'0 0.0
2017-Aug-23 18:48N 48°06' W 004°19'0 0.0
2017-Aug-23 17:48N 48°06' W 004°19'  
Track history (hours):
 
Tides and Currents Weather Stations Pressure Air Temp Water Temp Dewpoint Dewpoint Depression Visibility Wind Speed Wind Dir Waves Ship Positions

Legato

Last reported at 2017-Aug-31 04:10 UTC. Time now 2017-Sep-20 02:13 UTC.
Position N 48°17' W 004°35'.
Warning: this ship's position is 19 days out of date.

Length 10 m.

Type: Pleasure craft. MMSI: 250001829.

Date/timePositionNaut miles runAvg speedWind from/ knotsBaromVisibWave heightAir tempDewpointWater temp
2017-Aug-31 04:10N 48°17' W 004°35'0 0.0
2017-Aug-31 03:58N 48°17' W 004°35'0 0.0
2017-Aug-31 03:25N 48°17' W 004°35'0 0.0
2017-Aug-31 02:58N 48°17' W 004°35'0 0.0
2017-Aug-31 02:28N 48°17' W 004°35'0 0.0
2017-Aug-31 01:58N 48°17' W 004°35'0 0.0
2017-Aug-31 01:28N 48°17' W 004°35'0 0.0
2017-Aug-31 00:58N 48°17' W 004°35'0 0.0
2017-Aug-31 00:28N 48°17' W 004°35'0 0.0
2017-Aug-30 23:58N 48°17' W 004°35'0 0.0
2017-Aug-30 23:28N 48°17' W 004°35'0 0.0
2017-Aug-30 22:55N 48°17' W 004°35'0 0.0
2017-Aug-30 22:28N 48°17' W 004°35'0 0.0
2017-Aug-30 21:58N 48°17' W 004°35'0 0.0
2017-Aug-30 21:28N 48°17' W 004°35'0 0.0
2017-Aug-30 20:58N 48°17' W 004°35'0 0.0
2017-Aug-30 20:28N 48°17' W 004°35'0 0.0
2017-Aug-30 19:58N 48°17' W 004°35'0 0.0
2017-Aug-30 19:28N 48°17' W 004°35'0 0.0
2017-Aug-30 18:58N 48°17' W 004°35'0 0.0
2017-Aug-30 18:28N 48°17' W 004°35'0 0.0
2017-Aug-30 17:58N 48°17' W 004°35'0 0.0
2017-Aug-30 17:28N 48°17' W 004°35'0 0.0
2017-Aug-30 16:58N 48°17' W 004°35'0 0.0
2017-Aug-30 16:28N 48°17' W 004°35'0 0.0
2017-Aug-30 15:58N 48°17' W 004°35'0 0.0
2017-Aug-30 15:28N 48°17' W 004°35'0 0.0
2017-Aug-30 14:58N 48°17' W 004°35'1 1.6
2017-Aug-30 14:30N 48°17' W 004°36'2 4.0
2017-Aug-30 14:00N 48°16' W 004°38'1 1.8
2017-Aug-30 13:30N 48°15' W 004°38'1 2.4
2017-Aug-30 13:00N 48°14' W 004°39'3 5.0
2017-Aug-30 12:30N 48°12' W 004°37'3 5.5
2017-Aug-30 12:00N 48°10' W 004°34'3 4.2
2017-Aug-30 11:11N 48°12' W 004°30'1 5.0
2017-Aug-30 10:58N 48°13' W 004°29'1 1.0
2017-Aug-30 10:15N 48°14' W 004°30'0 0.0
2017-Aug-30 01:15N 48°14' W 004°30'0 0.0
2017-Aug-30 00:57N 48°14' W 004°30'0 0.0
2017-Aug-30 00:30N 48°14' W 004°30'0 0.0
2017-Aug-29 23:39N 48°14' W 004°30'0 0.0
2017-Aug-29 23:30N 48°14' W 004°30'0 0.0
2017-Aug-29 22:54N 48°14' W 004°30'0 0.0
2017-Aug-29 20:51N 48°14' W 004°30'0 0.0
2017-Aug-29 14:53N 48°14' W 004°30'1 3.2
2017-Aug-29 14:29N 48°13' W 004°28'4 0.5
2017-Aug-29 06:48N 48°11' W 004°32'0 0.0
2017-Aug-29 04:48N 48°11' W 004°32'0 0.0
2017-Aug-28 22:53N 48°11' W 004°32'  
2017-Aug-24 06:33N 48°06' W 004°19'0 0.0
2017-Aug-24 04:48N 48°06' W 004°19'0 0.0
2017-Aug-24 03:33N 48°06' W 004°19'0 0.0
2017-Aug-24 02:48N 48°06' W 004°19'0 0.0
2017-Aug-24 01:48N 48°06' W 004°19'0 0.0
2017-Aug-24 00:48N 48°06' W 004°19'0 0.0
2017-Aug-23 23:48N 48°06' W 004°19'0 0.0
2017-Aug-23 22:48N 48°06' W 004°19'0 0.0
2017-Aug-23 20:48N 48°06' W 004°19'0 0.0
2017-Aug-23 19:48N 48°06' W 004°19'0 0.0
2017-Aug-23 18:48N 48°06' W 004°19'0 0.0
2017-Aug-23 17:48N 48°06' W 004°19'  

Dump ship's entire track history